createdAt,value
2023-05-13T00:01:45.366Z,13.6
2023-05-13T00:11:44.617Z,13.4
2023-05-13T00:21:43.985Z,13.3
2023-05-13T00:31:44.636Z,13.1
2023-05-13T00:41:44.146Z,12.9
2023-05-13T00:51:44.019Z,12.8
2023-05-13T01:01:44.100Z,12.6
2023-05-13T01:11:44.350Z,12.4
2023-05-13T01:21:43.917Z,12.2
2023-05-13T01:31:44.441Z,12.0
2023-05-13T01:41:44.018Z,11.8
2023-05-13T01:51:44.378Z,11.5
2023-05-13T02:01:44.117Z,11.0
2023-05-13T02:11:44.763Z,10.6
2023-05-13T02:21:44.333Z,10.4
2023-05-13T02:31:44.178Z,10.3
2023-05-13T02:41:44.415Z,10.4
2023-05-13T02:51:44.763Z,10.6
2023-05-13T03:01:44.098Z,10.5
2023-05-13T03:11:44.006Z,10.5
2023-05-13T03:21:43.962Z,10.3
2023-05-13T03:31:44.368Z,9.9
2023-05-13T03:41:43.922Z,9.7
2023-05-13T03:51:43.959Z,9.6
2023-05-13T04:01:44.086Z,9.5
2023-05-13T04:11:44.050Z,9.5
2023-05-13T04:21:43.973Z,9.7
2023-05-13T04:31:44.038Z,9.8
2023-05-13T04:41:44.001Z,9.9
2023-05-13T04:51:43.987Z,9.9
2023-05-13T05:01:44.108Z,10.3
2023-05-13T05:11:43.972Z,10.7
2023-05-13T05:21:44.014Z,11.1
2023-05-13T05:31:44.133Z,11.4
2023-05-13T05:41:43.987Z,11.4
2023-05-13T05:51:44.191Z,11.5
2023-05-13T06:01:43.976Z,11.5
2023-05-13T06:11:44.157Z,11.9
2023-05-13T06:21:44.170Z,12.2
2023-05-13T06:31:44.093Z,12.5
2023-05-13T06:41:44.054Z,12.8
2023-05-13T06:51:44.219Z,12.8
2023-05-13T07:01:44.023Z,13.4
2023-05-13T07:11:43.990Z,13.8
2023-05-13T07:21:44.021Z,13.9
2023-05-13T07:31:44.094Z,14.1
2023-05-13T07:41:44.365Z,14.5
2023-05-13T07:51:44.053Z,15.0
2023-05-13T08:01:43.950Z,15.5
2023-05-13T08:11:44.062Z,15.9
2023-05-13T08:21:44.042Z,16.5
2023-05-13T08:31:44.557Z,16.8
2023-05-13T08:41:45.339Z,17.1
2023-05-13T08:51:44.263Z,17.5
2023-05-13T09:01:44.215Z,18.0
2023-05-13T09:11:44.809Z,18.6
2023-05-13T09:21:44.531Z,18.9
2023-05-13T09:31:44.344Z,19.4
2023-05-13T09:41:44.195Z,19.6
2023-05-13T09:51:43.964Z,20.2
2023-05-13T10:01:44.482Z,21.0
2023-05-13T10:11:44.086Z,21.1
2023-05-13T10:21:44.071Z,21.8
2023-05-13T10:31:44.085Z,21.7
2023-05-13T10:41:44.023Z,22.0
2023-05-13T10:51:44.006Z,22.0
2023-05-13T11:01:44.391Z,22.4
2023-05-13T11:11:44.428Z,22.5
2023-05-13T11:21:44.529Z,22.7
2023-05-13T11:31:44.590Z,22.7
2023-05-13T11:41:44.040Z,22.7
2023-05-13T11:51:44.123Z,22.9
2023-05-13T12:01:44.103Z,23.3
2023-05-13T12:11:44.131Z,23.7
2023-05-13T12:21:44.266Z,23.4
2023-05-13T12:31:44.166Z,23.0
2023-05-13T12:41:44.103Z,22.7
2023-05-13T12:51:44.607Z,23.3
2023-05-13T13:01:44.170Z,23.5
2023-05-13T13:11:44.163Z,23.4
2023-05-13T13:21:44.157Z,22.8
2023-05-13T13:31:44.447Z,23.2
2023-05-13T13:41:44.193Z,23.6
2023-05-13T13:51:44.203Z,22.8
2023-05-13T14:01:44.900Z,23.6
2023-05-13T14:11:44.044Z,23.5
2023-05-13T14:21:44.106Z,23.6
2023-05-13T14:31:44.416Z,23.9
2023-05-13T14:41:44.122Z,23.8
2023-05-13T14:51:44.068Z,22.7
2023-05-13T15:01:44.178Z,23.4
2023-05-13T15:11:44.154Z,23.4
2023-05-13T15:21:44.096Z,23.3
2023-05-13T15:31:44.172Z,22.5
2023-05-13T15:41:44.210Z,22.6
2023-05-13T15:51:44.611Z,22.8
2023-05-13T16:01:44.527Z,22.7
2023-05-13T16:11:44.287Z,22.6
2023-05-13T16:21:45.006Z,22.6
2023-05-13T16:31:45.113Z,22.5
2023-05-13T16:41:45.177Z,22.3
2023-05-13T16:51:45.047Z,22.3
2023-05-13T17:01:45.037Z,22.0
2023-05-13T17:11:45.245Z,22.1
2023-05-13T17:21:44.946Z,22.0
2023-05-13T17:31:45.147Z,21.9
2023-05-13T17:41:45.039Z,21.7
2023-05-13T17:51:45.187Z,21.4
2023-05-13T18:01:45.075Z,21.2
2023-05-13T18:11:45.097Z,21.0
2023-05-13T18:21:44.976Z,20.8
2023-05-13T18:31:44.993Z,20.5
2023-05-13T18:41:45.370Z,20.1
2023-05-13T18:51:45.493Z,19.8
2023-05-13T19:01:45.313Z,19.5
2023-05-13T19:11:45.206Z,19.2
2023-05-13T19:21:45.045Z,19.0
2023-05-13T19:31:45.270Z,18.9
2023-05-13T19:41:45.084Z,18.6
2023-05-13T19:51:45.256Z,18.4
2023-05-13T20:01:45.070Z,18.2
2023-05-13T20:11:45.122Z,17.8
2023-05-13T20:21:45.237Z,17.5
2023-05-13T20:31:45.206Z,17.2
2023-05-13T20:41:45.570Z,17.1
2023-05-13T20:51:45.216Z,16.9
2023-05-13T21:01:45.432Z,16.5
2023-05-13T21:11:44.973Z,16.2
2023-05-13T21:21:45.409Z,15.9
2023-05-13T21:31:45.302Z,15.6
2023-05-13T21:41:45.078Z,15.3
2023-05-13T21:51:45.315Z,15.0
2023-05-13T22:01:45.143Z,14.9
2023-05-13T22:11:45.645Z,14.7
2023-05-13T22:21:44.990Z,14.6
2023-05-13T22:31:45.207Z,14.3
2023-05-13T22:41:45.117Z,14.3
2023-05-13T22:51:45.013Z,14.2
2023-05-13T23:01:45.121Z,14.0
2023-05-13T23:11:45.069Z,14.0
2023-05-13T23:21:49.504Z,13.7
2023-05-13T23:31:45.551Z,13.5
2023-05-13T23:41:45.163Z,13.3
2023-05-13T23:51:50.193Z,13.0
